sensor_id;sensor_type;location;lat;lon;timestamp;temperature;humidity
37268;DHT22;23154;52.542;13.362;2022-12-17T00:01:50;-1.60;99.90
37268;DHT22;23154;52.542;13.362;2022-12-17T00:04:36;-1.70;99.90
37268;DHT22;23154;52.542;13.362;2022-12-17T00:07:20;-1.70;99.90
37268;DHT22;23154;52.542;13.362;2022-12-17T00:10:06;-1.70;99.90
37268;DHT22;23154;52.542;13.362;2022-12-17T00:12:50;-1.60;99.90
37268;DHT22;23154;52.542;13.362;2022-12-17T00:15:34;-1.60;99.90
37268;DHT22;23154;52.542;13.362;2022-12-17T00:18:18;-1.60;99.90
37268;DHT22;23154;52.542;13.362;2022-12-17T00:21:02;-1.60;99.90
37268;DHT22;23154;52.542;13.362;2022-12-17T00:23:47;-1.70;99.90
37268;DHT22;23154;52.542;13.362;2022-12-17T00:26:32;-1.60;99.90
37268;DHT22;23154;52.542;13.362;2022-12-17T00:29:16;-1.60;99.90
37268;DHT22;23154;52.542;13.362;2022-12-17T00:32:01;-1.60;99.90
37268;DHT22;23154;52.542;13.362;2022-12-17T00:34:46;-1.60;99.90
37268;DHT22;23154;52.542;13.362;2022-12-17T00:37:30;-1.60;99.90
37268;DHT22;23154;52.542;13.362;2022-12-17T00:40:14;-1.60;99.90
37268;DHT22;23154;52.542;13.362;2022-12-17T00:43:08;-1.60;99.90
37268;DHT22;23154;52.542;13.362;2022-12-17T00:45:54;-1.60;99.90
37268;DHT22;23154;52.542;13.362;2022-12-17T00:48:39;-1.70;99.90
37268;DHT22;23154;52.542;13.362;2022-12-17T00:51:23;-1.70;99.90
37268;DHT22;23154;52.542;13.362;2022-12-17T00:54:07;-1.70;99.90
37268;DHT22;23154;52.542;13.362;2022-12-17T00:56:51;-1.60;99.90
37268;DHT22;23154;52.542;13.362;2022-12-17T00:59:36;-1.70;99.90
37268;DHT22;23154;52.542;13.362;2022-12-17T01:02:20;-1.70;99.90
37268;DHT22;23154;52.542;13.362;2022-12-17T01:05:04;-1.80;99.90
37268;DHT22;23154;52.542;13.362;2022-12-17T01:07:49;-1.80;99.90
37268;DHT22;23154;52.542;13.362;2022-12-17T01:10:33;-1.80;99.90
37268;DHT22;23154;52.542;13.362;2022-12-17T01:13:18;-1.80;99.90
37268;DHT22;23154;52.542;13.362;2022-12-17T01:16:05;-1.90;99.90
37268;DHT22;23154;52.542;13.362;2022-12-17T01:18:50;-1.80;99.90
37268;DHT22;23154;52.542;13.362;2022-12-17T01:21:34;-1.80;99.90
37268;DHT22;23154;52.542;13.362;2022-12-17T01:24:19;-1.90;99.90
37268;DHT22;23154;52.542;13.362;2022-12-17T01:27:03;-1.90;99.90
37268;DHT22;23154;52.542;13.362;2022-12-17T01:29:47;-1.90;99.90
37268;DHT22;23154;52.542;13.362;2022-12-17T01:32:31;-1.90;99.90
37268;DHT22;23154;52.542;13.362;2022-12-17T01:35:15;-1.80;99.90
37268;DHT22;23154;52.542;13.362;2022-12-17T01:38:00;-1.80;99.90
37268;DHT22;23154;52.542;13.362;2022-12-17T01:40:49;-1.70;99.90
37268;DHT22;23154;52.542;13.362;2022-12-17T01:43:34;-1.80;99.90
37268;DHT22;23154;52.542;13.362;2022-12-17T01:46:19;-1.70;99.90
37268;DHT22;23154;52.542;13.362;2022-12-17T01:49:04;-1.80;99.90
37268;DHT22;23154;52.542;13.362;2022-12-17T01:51:49;-1.70;99.90
37268;DHT22;23154;52.542;13.362;2022-12-17T01:54:35;-1.90;99.90
37268;DHT22;23154;52.542;13.362;2022-12-17T01:57:19;-1.90;99.90
37268;DHT22;23154;52.542;13.362;2022-12-17T02:00:05;-1.90;99.90
37268;DHT22;23154;52.542;13.362;2022-12-17T02:02:49;-1.80;99.90
37268;DHT22;23154;52.542;13.362;2022-12-17T02:08:26;-1.90;99.90
37268;DHT22;23154;52.542;13.362;2022-12-17T02:11:21;-2.00;99.90
37268;DHT22;23154;52.542;13.362;2022-12-17T02:16:54;-2.10;99.90
37268;DHT22;23154;52.542;13.362;2022-12-17T02:28:31;-2.10;99.90
37268;DHT22;23154;52.542;13.362;2022-12-17T02:31:16;-2.10;99.90
37268;DHT22;23154;52.542;13.362;2022-12-17T02:34:02;-2.20;99.90
37268;DHT22;23154;52.542;13.362;2022-12-17T02:36:46;-2.20;99.90
37268;DHT22;23154;52.542;13.362;2022-12-17T02:39:30;-2.20;99.90
37268;DHT22;23154;52.542;13.362;2022-12-17T02:42:14;-2.20;99.90
37268;DHT22;23154;52.542;13.362;2022-12-17T02:44:59;-2.30;99.90
37268;DHT22;23154;52.542;13.362;2022-12-17T02:47:43;-2.20;99.90
37268;DHT22;23154;52.542;13.362;2022-12-17T02:50:27;-2.30;99.90
37268;DHT22;23154;52.542;13.362;2022-12-17T02:53:12;-2.20;99.90
37268;DHT22;23154;52.542;13.362;2022-12-17T02:55:56;-2.20;99.90
37268;DHT22;23154;52.542;13.362;2022-12-17T02:58:42;-2.20;99.90
37268;DHT22;23154;52.542;13.362;2022-12-17T03:01:26;-2.20;99.90
37268;DHT22;23154;52.542;13.362;2022-12-17T03:04:10;-2.20;99.90
37268;DHT22;23154;52.542;13.362;2022-12-17T03:06:55;-2.20;99.90
37268;DHT22;23154;52.542;13.362;2022-12-17T03:09:39;-2.10;99.90
37268;DHT22;23154;52.542;13.362;2022-12-17T03:12:23;-2.10;99.90
37268;DHT22;23154;52.542;13.362;2022-12-17T03:15:08;-2.10;99.90
37268;DHT22;23154;52.542;13.362;2022-12-17T03:17:52;-2.10;99.90
37268;DHT22;23154;52.542;13.362;2022-12-17T03:20:37;-2.10;99.90
37268;DHT22;23154;52.542;13.362;2022-12-17T03:23:21;-2.10;99.90
37268;DHT22;23154;52.542;13.362;2022-12-17T03:26:05;-2.20;99.90
37268;DHT22;23154;52.542;13.362;2022-12-17T03:28:49;-2.10;99.90
37268;DHT22;23154;52.542;13.362;2022-12-17T03:31:35;-2.20;99.90
37268;DHT22;23154;52.542;13.362;2022-12-17T03:34:19;-2.20;99.90
37268;DHT22;23154;52.542;13.362;2022-12-17T03:37:03;-2.20;99.90
37268;DHT22;23154;52.542;13.362;2022-12-17T03:39:47;-2.10;99.90
37268;DHT22;23154;52.542;13.362;2022-12-17T03:42:32;-2.10;99.90
37268;DHT22;23154;52.542;13.362;2022-12-17T03:45:16;-2.10;99.90
37268;DHT22;23154;52.542;13.362;2022-12-17T03:48:07;-2.10;99.90
37268;DHT22;23154;52.542;13.362;2022-12-17T03:50:52;-2.10;99.90
37268;DHT22;23154;52.542;13.362;2022-12-17T03:53:36;-2.10;99.90
37268;DHT22;23154;52.542;13.362;2022-12-17T03:56:20;-2.20;99.90
37268;DHT22;23154;52.542;13.362;2022-12-17T03:59:04;-2.20;99.90
37268;DHT22;23154;52.542;13.362;2022-12-17T04:01:49;-2.20;99.90
37268;DHT22;23154;52.542;13.362;2022-12-17T04:04:33;-2.10;99.90
37268;DHT22;23154;52.542;13.362;2022-12-17T04:07:17;-2.10;99.90
37268;DHT22;23154;52.542;13.362;2022-12-17T04:10:02;-2.20;99.90
37268;DHT22;23154;52.542;13.362;2022-12-17T04:12:46;-2.20;99.90
37268;DHT22;23154;52.542;13.362;2022-12-17T04:15:30;-2.10;99.90
37268;DHT22;23154;52.542;13.362;2022-12-17T04:18:15;-2.20;99.90
37268;DHT22;23154;52.542;13.362;2022-12-17T04:20:59;-2.20;99.90
37268;DHT22;23154;52.542;13.362;2022-12-17T04:23:43;-2.10;99.90
37268;DHT22;23154;52.542;13.362;2022-12-17T04:26:27;-2.20;99.90
37268;DHT22;23154;52.542;13.362;2022-12-17T04:29:11;-2.20;99.90
37268;DHT22;23154;52.542;13.362;2022-12-17T04:31:56;-2.10;99.90
37268;DHT22;23154;52.542;13.362;2022-12-17T04:34:40;-2.10;99.90
37268;DHT22;23154;52.542;13.362;2022-12-17T04:37:24;-2.20;99.90
37268;DHT22;23154;52.542;13.362;2022-12-17T04:40:10;-2.20;99.90
37268;DHT22;23154;52.542;13.362;2022-12-17T04:42:54;-2.20;99.90
37268;DHT22;23154;52.542;13.362;2022-12-17T04:45:38;-2.20;99.90
37268;DHT22;23154;52.542;13.362;2022-12-17T04:48:22;-2.20;99.90
37268;DHT22;23154;52.542;13.362;2022-12-17T04:51:09;-2.10;99.90
37268;DHT22;23154;52.542;13.362;2022-12-17T04:53:54;-2.20;99.90
37268;DHT22;23154;52.542;13.362;2022-12-17T04:56:38;-2.20;99.90
37268;DHT22;23154;52.542;13.362;2022-12-17T04:59:22;-2.20;99.90
37268;DHT22;23154;52.542;13.362;2022-12-17T05:02:07;-2.20;99.90
37268;DHT22;23154;52.542;13.362;2022-12-17T05:04:52;-2.30;99.90
37268;DHT22;23154;52.542;13.362;2022-12-17T05:07:37;-2.40;99.90
37268;DHT22;23154;52.542;13.362;2022-12-17T05:10:21;-2.30;99.90
37268;DHT22;23154;52.542;13.362;2022-12-17T05:13:05;-2.40;99.90
37268;DHT22;23154;52.542;13.362;2022-12-17T05:15:54;-2.40;99.90
37268;DHT22;23154;52.542;13.362;2022-12-17T05:18:38;-2.40;99.90
37268;DHT22;23154;52.542;13.362;2022-12-17T05:21:22;-2.30;99.90
37268;DHT22;23154;52.542;13.362;2022-12-17T05:24:06;-2.30;99.90
37268;DHT22;23154;52.542;13.362;2022-12-17T05:27:01;-2.40;99.90
37268;DHT22;23154;52.542;13.362;2022-12-17T05:29:48;-2.40;99.90
37268;DHT22;23154;52.542;13.362;2022-12-17T05:32:32;-2.50;99.90
37268;DHT22;23154;52.542;13.362;2022-12-17T05:35:17;-2.50;99.90
37268;DHT22;23154;52.542;13.362;2022-12-17T05:38:02;-2.50;99.90
37268;DHT22;23154;52.542;13.362;2022-12-17T05:40:46;-2.50;99.90
37268;DHT22;23154;52.542;13.362;2022-12-17T05:43:30;-2.50;99.90
37268;DHT22;23154;52.542;13.362;2022-12-17T05:46:15;-2.50;99.90
37268;DHT22;23154;52.542;13.362;2022-12-17T05:48:59;-2.50;99.90
37268;DHT22;23154;52.542;13.362;2022-12-17T05:51:43;-2.50;99.90
37268;DHT22;23154;52.542;13.362;2022-12-17T05:54:27;-2.60;99.90
37268;DHT22;23154;52.542;13.362;2022-12-17T05:57:12;-2.50;99.90
37268;DHT22;23154;52.542;13.362;2022-12-17T05:59:56;-2.50;99.90
37268;DHT22;23154;52.542;13.362;2022-12-17T06:02:40;-2.50;99.90
37268;DHT22;23154;52.542;13.362;2022-12-17T06:05:24;-2.60;99.90
37268;DHT22;23154;52.542;13.362;2022-12-17T06:08:09;-2.50;99.90
37268;DHT22;23154;52.542;13.362;2022-12-17T06:10:53;-2.50;99.90
37268;DHT22;23154;52.542;13.362;2022-12-17T06:13:40;-2.40;99.90
37268;DHT22;23154;52.542;13.362;2022-12-17T06:16:24;-2.30;99.90
37268;DHT22;23154;52.542;13.362;2022-12-17T06:19:09;-2.30;99.90
37268;DHT22;23154;52.542;13.362;2022-12-17T06:21:53;-2.40;99.90
37268;DHT22;23154;52.542;13.362;2022-12-17T06:24:37;-2.50;99.90
37268;DHT22;23154;52.542;13.362;2022-12-17T06:27:23;-2.50;99.90
37268;DHT22;23154;52.542;13.362;2022-12-17T06:30:07;-2.40;99.90
37268;DHT22;23154;52.542;13.362;2022-12-17T06:32:51;-2.40;99.90
37268;DHT22;23154;52.542;13.362;2022-12-17T06:35:35;-2.50;99.90
37268;DHT22;23154;52.542;13.362;2022-12-17T06:38:19;-2.50;99.90
37268;DHT22;23154;52.542;13.362;2022-12-17T06:41:04;-2.70;99.90
37268;DHT22;23154;52.542;13.362;2022-12-17T06:43:48;-2.70;99.90
37268;DHT22;23154;52.542;13.362;2022-12-17T06:46:32;-2.70;99.90
37268;DHT22;23154;52.542;13.362;2022-12-17T06:49:22;-2.70;99.90
37268;DHT22;23154;52.542;13.362;2022-12-17T06:52:06;-2.70;99.90
37268;DHT22;23154;52.542;13.362;2022-12-17T06:54:50;-2.70;99.90
37268;DHT22;23154;52.542;13.362;2022-12-17T06:57:34;-2.70;99.90
37268;DHT22;23154;52.542;13.362;2022-12-17T07:00:19;-2.70;99.90
37268;DHT22;23154;52.542;13.362;2022-12-17T07:03:04;-2.80;99.90
37268;DHT22;23154;52.542;13.362;2022-12-17T07:05:51;-2.60;99.90
37268;DHT22;23154;52.542;13.362;2022-12-17T07:08:35;-2.50;99.90
37268;DHT22;23154;52.542;13.362;2022-12-17T07:11:19;-2.50;99.90
37268;DHT22;23154;52.542;13.362;2022-12-17T07:14:09;-2.50;99.90
37268;DHT22;23154;52.542;13.362;2022-12-17T07:16:53;-2.50;99.90
37268;DHT22;23154;52.542;13.362;2022-12-17T07:19:37;-2.50;99.90
37268;DHT22;23154;52.542;13.362;2022-12-17T07:22:22;-2.50;99.90
37268;DHT22;23154;52.542;13.362;2022-12-17T07:25:06;-2.60;99.90
37268;DHT22;23154;52.542;13.362;2022-12-17T07:27:54;-2.60;99.90
37268;DHT22;23154;52.542;13.362;2022-12-17T07:30:38;-2.60;99.90
37268;DHT22;23154;52.542;13.362;2022-12-17T07:33:22;-2.40;99.90
37268;DHT22;23154;52.542;13.362;2022-12-17T07:36:06;-2.50;99.90
37268;DHT22;23154;52.542;13.362;2022-12-17T07:38:50;-2.50;99.90
37268;DHT22;23154;52.542;13.362;2022-12-17T07:41:35;-2.40;99.90
37268;DHT22;23154;52.542;13.362;2022-12-17T07:44:19;-2.40;99.90
37268;DHT22;23154;52.542;13.362;2022-12-17T07:47:04;-2.40;99.90
37268;DHT22;23154;52.542;13.362;2022-12-17T07:49:48;-2.50;99.90
37268;DHT22;23154;52.542;13.362;2022-12-17T07:52:32;-2.60;99.90
37268;DHT22;23154;52.542;13.362;2022-12-17T07:55:16;-2.60;99.90
37268;DHT22;23154;52.542;13.362;2022-12-17T07:58:03;-2.60;99.90
37268;DHT22;23154;52.542;13.362;2022-12-17T08:00:48;-2.50;99.90
37268;DHT22;23154;52.542;13.362;2022-12-17T08:03:49;-2.50;99.90
37268;DHT22;23154;52.542;13.362;2022-12-17T08:06:33;-2.50;99.90
37268;DHT22;23154;52.542;13.362;2022-12-17T08:09:18;-2.50;99.90
37268;DHT22;23154;52.542;13.362;2022-12-17T08:12:04;-2.60;99.90
37268;DHT22;23154;52.542;13.362;2022-12-17T08:14:48;-2.60;99.90
37268;DHT22;23154;52.542;13.362;2022-12-17T08:17:32;-2.50;99.90
37268;DHT22;23154;52.542;13.362;2022-12-17T08:20:16;-2.40;99.90
37268;DHT22;23154;52.542;13.362;2022-12-17T08:23:04;-2.40;99.90
37268;DHT22;23154;52.542;13.362;2022-12-17T08:25:48;-2.40;99.90
37268;DHT22;23154;52.542;13.362;2022-12-17T08:28:32;-2.50;99.90
37268;DHT22;23154;52.542;13.362;2022-12-17T08:31:17;-2.50;99.90
37268;DHT22;23154;52.542;13.362;2022-12-17T08:34:01;-2.50;99.90
37268;DHT22;23154;52.542;13.362;2022-12-17T08:36:45;-2.50;99.90
37268;DHT22;23154;52.542;13.362;2022-12-17T08:39:30;-2.30;99.90
37268;DHT22;23154;52.542;13.362;2022-12-17T08:42:14;-2.30;99.90
37268;DHT22;23154;52.542;13.362;2022-12-17T08:44:58;-2.20;99.90
37268;DHT22;23154;52.542;13.362;2022-12-17T08:47:42;-2.20;99.90
37268;DHT22;23154;52.542;13.362;2022-12-17T08:50:28;-2.30;99.90
37268;DHT22;23154;52.542;13.362;2022-12-17T08:53:12;-2.30;99.90
37268;DHT22;23154;52.542;13.362;2022-12-17T08:55:56;-2.30;99.90
37268;DHT22;23154;52.542;13.362;2022-12-17T08:58:41;-2.20;99.90
37268;DHT22;23154;52.542;13.362;2022-12-17T09:01:25;-2.20;99.90
37268;DHT22;23154;52.542;13.362;2022-12-17T09:04:09;-2.30;99.90
37268;DHT22;23154;52.542;13.362;2022-12-17T09:06:53;-2.30;99.90
37268;DHT22;23154;52.542;13.362;2022-12-17T09:09:38;-2.40;99.90
37268;DHT22;23154;52.542;13.362;2022-12-17T09:12:22;-2.20;99.90
37268;DHT22;23154;52.542;13.362;2022-12-17T09:15:06;-2.20;99.90
37268;DHT22;23154;52.542;13.362;2022-12-17T09:17:51;-2.10;99.90
37268;DHT22;23154;52.542;13.362;2022-12-17T09:20:35;-2.10;99.90
37268;DHT22;23154;52.542;13.362;2022-12-17T09:23:19;-2.10;99.90
37268;DHT22;23154;52.542;13.362;2022-12-17T09:26:04;-2.20;99.90
37268;DHT22;23154;52.542;13.362;2022-12-17T09:28:49;-2.20;99.90
37268;DHT22;23154;52.542;13.362;2022-12-17T09:31:33;-2.30;99.90
37268;DHT22;23154;52.542;13.362;2022-12-17T09:34:17;-2.20;99.90
37268;DHT22;23154;52.542;13.362;2022-12-17T09:37:02;-2.30;99.90
37268;DHT22;23154;52.542;13.362;2022-12-17T09:39:46;-2.30;99.90
37268;DHT22;23154;52.542;13.362;2022-12-17T09:42:35;-2.20;99.90
37268;DHT22;23154;52.542;13.362;2022-12-17T09:45:30;-2.30;99.90
37268;DHT22;23154;52.542;13.362;2022-12-17T09:51:11;-2.40;99.90
37268;DHT22;23154;52.542;13.362;2022-12-17T09:54:05;-2.40;99.90
37268;DHT22;23154;52.542;13.362;2022-12-17T09:56:52;-2.20;99.90
37268;DHT22;23154;52.542;13.362;2022-12-17T09:59:37;-2.10;99.90
37268;DHT22;23154;52.542;13.362;2022-12-17T10:02:22;-2.00;99.90
37268;DHT22;23154;52.542;13.362;2022-12-17T10:05:10;-1.80;99.90
37268;DHT22;23154;52.542;13.362;2022-12-17T10:07:55;-1.80;99.90
37268;DHT22;23154;52.542;13.362;2022-12-17T10:10:50;-1.80;99.90
37268;DHT22;23154;52.542;13.362;2022-12-17T10:13:35;-1.80;99.90
37268;DHT22;23154;52.542;13.362;2022-12-17T10:19:15;-1.80;99.90
37268;DHT22;23154;52.542;13.362;2022-12-17T10:22:07;-1.70;99.90
37268;DHT22;23154;52.542;13.362;2022-12-17T10:24:51;-1.70;99.90
37268;DHT22;23154;52.542;13.362;2022-12-17T10:27:37;-2.00;99.90
37268;DHT22;23154;52.542;13.362;2022-12-17T10:30:21;-1.80;99.90
37268;DHT22;23154;52.542;13.362;2022-12-17T10:33:05;-1.90;99.90
37268;DHT22;23154;52.542;13.362;2022-12-17T10:35:50;-1.90;99.90
37268;DHT22;23154;52.542;13.362;2022-12-17T10:38:35;-1.80;99.90
37268;DHT22;23154;52.542;13.362;2022-12-17T10:41:21;-1.80;99.90
37268;DHT22;23154;52.542;13.362;2022-12-17T10:47:14;-1.90;99.90
37268;DHT22;23154;52.542;13.362;2022-12-17T10:50:00;-2.00;99.90
37268;DHT22;23154;52.542;13.362;2022-12-17T10:52:45;-1.90;99.90
37268;DHT22;23154;52.542;13.362;2022-12-17T10:55:32;-2.00;99.90
37268;DHT22;23154;52.542;13.362;2022-12-17T10:58:20;-2.10;99.90
37268;DHT22;23154;52.542;13.362;2022-12-17T11:01:08;-2.20;99.90
37268;DHT22;23154;52.542;13.362;2022-12-17T11:03:53;-2.20;99.90
37268;DHT22;23154;52.542;13.362;2022-12-17T11:06:42;-2.10;99.90
37268;DHT22;23154;52.542;13.362;2022-12-17T11:09:45;-2.10;99.90
37268;DHT22;23154;52.542;13.362;2022-12-17T11:12:37;-2.00;99.90
37268;DHT22;23154;52.542;13.362;2022-12-17T11:15:35;-2.00;99.90
37268;DHT22;23154;52.542;13.362;2022-12-17T11:18:21;-2.20;99.90
37268;DHT22;23154;52.542;13.362;2022-12-17T11:21:30;-2.00;99.90
37268;DHT22;23154;52.542;13.362;2022-12-17T11:24:17;-2.10;99.90
37268;DHT22;23154;52.542;13.362;2022-12-17T11:27:07;-2.00;99.90
37268;DHT22;23154;52.542;13.362;2022-12-17T11:29:52;-2.10;99.90
37268;DHT22;23154;52.542;13.362;2022-12-17T11:38:40;-2.00;99.90
37268;DHT22;23154;52.542;13.362;2022-12-17T11:52:59;-2.30;99.90
37268;DHT22;23154;52.542;13.362;2022-12-17T11:56:29;-2.10;99.90
37268;DHT22;23154;52.542;13.362;2022-12-17T12:17:23;-2.30;99.90
37268;DHT22;23154;52.542;13.362;2022-12-17T12:20:12;-2.30;99.90
37268;DHT22;23154;52.542;13.362;2022-12-17T12:23:05;-2.20;99.90
37268;DHT22;23154;52.542;13.362;2022-12-17T12:26:00;-2.10;99.90
37268;DHT22;23154;52.542;13.362;2022-12-17T12:28:51;-2.10;99.90
37268;DHT22;23154;52.542;13.362;2022-12-17T12:32:19;-2.20;99.90
37268;DHT22;23154;52.542;13.362;2022-12-17T12:34:45;-2.20;99.90
37268;DHT22;23154;52.542;13.362;2022-12-17T12:37:30;-2.30;99.90
37268;DHT22;23154;52.542;13.362;2022-12-17T12:40:23;-2.30;99.90
37268;DHT22;23154;52.542;13.362;2022-12-17T12:45:57;-2.40;99.90
37268;DHT22;23154;52.542;13.362;2022-12-17T12:51:46;-2.40;99.90
37268;DHT22;23154;52.542;13.362;2022-12-17T12:54:48;-2.40;99.90
37268;DHT22;23154;52.542;13.362;2022-12-17T12:57:36;-2.40;99.90
37268;DHT22;23154;52.542;13.362;2022-12-17T13:01:07;-2.40;99.90
37268;DHT22;23154;52.542;13.362;2022-12-17T13:03:33;-2.50;99.90
37268;DHT22;23154;52.542;13.362;2022-12-17T13:16:50;-2.60;99.90
37268;DHT22;23154;52.542;13.362;2022-12-17T13:19:36;-2.50;99.90
37268;DHT22;23154;52.542;13.362;2022-12-17T13:24:47;-2.50;99.90
37268;DHT22;23154;52.542;13.362;2022-12-17T13:27:37;-2.40;99.90
37268;DHT22;23154;52.542;13.362;2022-12-17T13:32:46;-2.40;99.90
37268;DHT22;23154;52.542;13.362;2022-12-17T13:43:12;-2.30;99.90
37268;DHT22;23154;52.542;13.362;2022-12-17T13:45:38;-2.30;99.90
37268;DHT22;23154;52.542;13.362;2022-12-17T13:48:05;-2.30;99.90
37268;DHT22;23154;52.542;13.362;2022-12-17T13:50:30;-2.30;99.90
37268;DHT22;23154;52.542;13.362;2022-12-17T13:52:56;-2.50;99.90
37268;DHT22;23154;52.542;13.362;2022-12-17T13:55:32;-2.40;99.90
37268;DHT22;23154;52.542;13.362;2022-12-17T13:57:58;-2.60;99.90
37268;DHT22;23154;52.542;13.362;2022-12-17T14:00:29;-2.70;99.90
37268;DHT22;23154;52.542;13.362;2022-12-17T14:03:07;-2.60;99.90
37268;DHT22;23154;52.542;13.362;2022-12-17T14:05:34;-2.70;99.90
37268;DHT22;23154;52.542;13.362;2022-12-17T14:08:02;-2.70;99.90
37268;DHT22;23154;52.542;13.362;2022-12-17T14:10:28;-2.70;99.90
37268;DHT22;23154;52.542;13.362;2022-12-17T14:13:04;-2.80;99.90
37268;DHT22;23154;52.542;13.362;2022-12-17T14:18:22;-2.90;99.90
37268;DHT22;23154;52.542;13.362;2022-12-17T14:20:48;-3.00;99.90
37268;DHT22;23154;52.542;13.362;2022-12-17T14:23:25;-3.00;99.90
37268;DHT22;23154;52.542;13.362;2022-12-17T14:25:51;-3.00;99.90
37268;DHT22;23154;52.542;13.362;2022-12-17T14:30:45;-3.00;99.90
37268;DHT22;23154;52.542;13.362;2022-12-17T14:35:55;-3.00;99.90
37268;DHT22;23154;52.542;13.362;2022-12-17T14:38:21;-2.90;99.90
37268;DHT22;23154;52.542;13.362;2022-12-17T14:40:47;-2.90;99.90
37268;DHT22;23154;52.542;13.362;2022-12-17T14:43:13;-2.90;99.90
37268;DHT22;23154;52.542;13.362;2022-12-17T14:45:47;-3.00;99.90
37268;DHT22;23154;52.542;13.362;2022-12-17T14:48:33;-3.00;99.90
37268;DHT22;23154;52.542;13.362;2022-12-17T14:51:37;-2.90;99.90
37268;DHT22;23154;52.542;13.362;2022-12-17T14:54:17;-3.00;99.90
37268;DHT22;23154;52.542;13.362;2022-12-17T14:56:44;-3.00;99.90
37268;DHT22;23154;52.542;13.362;2022-12-17T14:59:23;-3.20;99.90
37268;DHT22;23154;52.542;13.362;2022-12-17T15:01:51;-3.20;99.90
37268;DHT22;23154;52.542;13.362;2022-12-17T15:04:17;-3.20;99.90
37268;DHT22;23154;52.542;13.362;2022-12-17T15:06:42;-3.20;99.90
37268;DHT22;23154;52.542;13.362;2022-12-17T15:09:09;-3.20;99.90
37268;DHT22;23154;52.542;13.362;2022-12-17T15:11:36;-3.20;99.90
37268;DHT22;23154;52.542;13.362;2022-12-17T15:14:02;-3.20;99.90
37268;DHT22;23154;52.542;13.362;2022-12-17T15:16:29;-3.20;99.90
37268;DHT22;23154;52.542;13.362;2022-12-17T15:18:58;-3.10;99.90
37268;DHT22;23154;52.542;13.362;2022-12-17T15:21:25;-3.10;99.90
37268;DHT22;23154;52.542;13.362;2022-12-17T15:23:54;-3.10;99.90
37268;DHT22;23154;52.542;13.362;2022-12-17T15:26:20;-3.10;99.90
37268;DHT22;23154;52.542;13.362;2022-12-17T15:28:45;-3.20;99.90
37268;DHT22;23154;52.542;13.362;2022-12-17T15:31:12;-3.20;99.90
37268;DHT22;23154;52.542;13.362;2022-12-17T15:33:38;-3.20;99.90
37268;DHT22;23154;52.542;13.362;2022-12-17T15:36:04;-3.10;99.90
37268;DHT22;23154;52.542;13.362;2022-12-17T15:38:29;-3.10;99.90
37268;DHT22;23154;52.542;13.362;2022-12-17T15:40:58;-3.00;99.90
37268;DHT22;23154;52.542;13.362;2022-12-17T15:43:25;-3.00;99.90
37268;DHT22;23154;52.542;13.362;2022-12-17T15:45:50;-3.10;99.90
37268;DHT22;23154;52.542;13.362;2022-12-17T15:48:17;-3.10;99.90
37268;DHT22;23154;52.542;13.362;2022-12-17T15:50:43;-3.20;99.90
37268;DHT22;23154;52.542;13.362;2022-12-17T15:53:09;-3.20;99.90
37268;DHT22;23154;52.542;13.362;2022-12-17T15:55:35;-3.00;99.90
37268;DHT22;23154;52.542;13.362;2022-12-17T15:58:02;-3.00;99.90
37268;DHT22;23154;52.542;13.362;2022-12-17T16:00:28;-3.10;99.90
37268;DHT22;23154;52.542;13.362;2022-12-17T16:02:54;-3.10;99.90
37268;DHT22;23154;52.542;13.362;2022-12-17T16:05:19;-3.10;99.90
37268;DHT22;23154;52.542;13.362;2022-12-17T16:07:46;-3.10;99.90
37268;DHT22;23154;52.542;13.362;2022-12-17T16:10:12;-3.20;99.90
37268;DHT22;23154;52.542;13.362;2022-12-17T16:12:38;-3.30;99.90
37268;DHT22;23154;52.542;13.362;2022-12-17T16:15:04;-3.30;99.90
37268;DHT22;23154;52.542;13.362;2022-12-17T16:17:31;-3.20;99.90
37268;DHT22;23154;52.542;13.362;2022-12-17T16:19:57;-3.20;99.90
37268;DHT22;23154;52.542;13.362;2022-12-17T16:22:26;-3.20;99.90
37268;DHT22;23154;52.542;13.362;2022-12-17T16:24:51;-3.20;99.90
37268;DHT22;23154;52.542;13.362;2022-12-17T16:27:17;-3.10;99.90
37268;DHT22;23154;52.542;13.362;2022-12-17T16:29:46;-3.10;99.90
37268;DHT22;23154;52.542;13.362;2022-12-17T16:32:15;-3.20;99.90
37268;DHT22;23154;52.542;13.362;2022-12-17T16:34:44;-3.30;99.90
37268;DHT22;23154;52.542;13.362;2022-12-17T16:37:11;-3.30;99.90
37268;DHT22;23154;52.542;13.362;2022-12-17T16:39:37;-3.20;99.90
37268;DHT22;23154;52.542;13.362;2022-12-17T16:42:03;-3.20;99.90
37268;DHT22;23154;52.542;13.362;2022-12-17T16:44:29;-3.20;99.90
37268;DHT22;23154;52.542;13.362;2022-12-17T16:46:54;-3.10;99.90
37268;DHT22;23154;52.542;13.362;2022-12-17T16:49:22;-3.10;99.90
37268;DHT22;23154;52.542;13.362;2022-12-17T16:51:54;-3.10;99.90
37268;DHT22;23154;52.542;13.362;2022-12-17T16:54:21;-3.10;99.90
37268;DHT22;23154;52.542;13.362;2022-12-17T16:56:46;-3.20;99.90
37268;DHT22;23154;52.542;13.362;2022-12-17T16:59:15;-3.20;99.90
37268;DHT22;23154;52.542;13.362;2022-12-17T17:01:42;-2.80;99.90
37268;DHT22;23154;52.542;13.362;2022-12-17T17:04:09;-3.00;99.90
37268;DHT22;23154;52.542;13.362;2022-12-17T17:06:39;-3.10;99.90
37268;DHT22;23154;52.542;13.362;2022-12-17T17:09:04;-3.20;99.90
37268;DHT22;23154;52.542;13.362;2022-12-17T17:11:30;-3.30;99.90
37268;DHT22;23154;52.542;13.362;2022-12-17T17:13:55;-3.30;99.90
37268;DHT22;23154;52.542;13.362;2022-12-17T17:16:24;-3.20;99.90
37268;DHT22;23154;52.542;13.362;2022-12-17T17:18:50;-3.20;99.90
37268;DHT22;23154;52.542;13.362;2022-12-17T17:23:45;-3.10;99.90
37268;DHT22;23154;52.542;13.362;2022-12-17T17:26:11;-3.20;99.90
37268;DHT22;23154;52.542;13.362;2022-12-17T17:28:37;-3.40;99.90
37268;DHT22;23154;52.542;13.362;2022-12-17T17:31:04;-3.30;99.90
37268;DHT22;23154;52.542;13.362;2022-12-17T17:33:34;-3.30;99.90
37268;DHT22;23154;52.542;13.362;2022-12-17T17:36:08;-3.40;99.90
37268;DHT22;23154;52.542;13.362;2022-12-17T17:38:35;-3.30;99.90
37268;DHT22;23154;52.542;13.362;2022-12-17T17:41:03;-3.30;99.90
37268;DHT22;23154;52.542;13.362;2022-12-17T17:43:29;-3.30;99.90
37268;DHT22;23154;52.542;13.362;2022-12-17T17:45:54;-3.30;99.90
37268;DHT22;23154;52.542;13.362;2022-12-17T17:48:22;-3.30;99.90
37268;DHT22;23154;52.542;13.362;2022-12-17T17:51:07;-3.40;99.90
37268;DHT22;23154;52.542;13.362;2022-12-17T17:53:36;-3.40;99.90
37268;DHT22;23154;52.542;13.362;2022-12-17T17:56:04;-3.40;99.90
37268;DHT22;23154;52.542;13.362;2022-12-17T17:58:30;-3.40;99.90
37268;DHT22;23154;52.542;13.362;2022-12-17T18:00:55;-3.50;99.90
37268;DHT22;23154;52.542;13.362;2022-12-17T18:03:22;-3.40;99.90
37268;DHT22;23154;52.542;13.362;2022-12-17T18:05:47;-3.50;99.90
37268;DHT22;23154;52.542;13.362;2022-12-17T18:08:16;-3.40;99.90
37268;DHT22;23154;52.542;13.362;2022-12-17T18:10:41;-3.50;99.90
37268;DHT22;23154;52.542;13.362;2022-12-17T18:13:07;-3.60;99.90
37268;DHT22;23154;52.542;13.362;2022-12-17T18:15:58;-3.60;99.90
37268;DHT22;23154;52.542;13.362;2022-12-17T18:18:23;-3.60;99.90